createdAt,value
2022-08-25T00:00:11.486Z,7.29
2022-08-25T00:05:27.786Z,7.29
2022-08-25T00:09:53.736Z,7.44
2022-08-25T00:14:26.116Z,7.44
2022-08-25T00:19:35.241Z,7.31
2022-08-25T00:24:45.007Z,7.31
2022-08-25T00:29:54.834Z,7.39
2022-08-25T00:35:03.237Z,7.39
2022-08-25T00:40:13.358Z,7.42
2022-08-25T00:45:22.756Z,7.53
2022-08-25T00:50:33.998Z,7.53
2022-08-25T00:55:43.555Z,5.85
2022-08-25T01:02:14.293Z,5.85
2022-08-25T01:07:18.161Z,6.82
2022-08-25T01:12:31.623Z,6.82
2022-08-25T01:17:37.487Z,7.36
2022-08-25T01:22:55.639Z,7.36
2022-08-25T01:27:56.366Z,7.42
2022-08-25T01:33:05.486Z,7.42
2022-08-25T01:38:15.245Z,5.71
2022-08-25T01:43:25.004Z,5.71
2022-08-25T01:48:32.834Z,6.33
2022-08-25T01:53:41.956Z,6.33
2022-08-25T01:58:51.715Z,6.92
2022-08-25T02:04:03.102Z,6.92
2022-08-25T02:09:11.872Z,6.04
2022-08-25T02:14:20.338Z,6.04
2022-08-25T02:19:28.848Z,6.39
2022-08-25T02:24:38.597Z,6.39
2022-08-25T02:29:48.369Z,7.22
2022-08-25T02:34:56.202Z,7.22
2022-08-25T02:40:05.230Z,7.45
2022-08-25T02:45:13.167Z,7.45
2022-08-25T02:50:21.631Z,7.29
2022-08-25T02:55:34.800Z,7.29
2022-08-25T03:00:43.607Z,7.45
2022-08-25T03:05:50.906Z,7.45
2022-08-25T03:10:59.382Z,7.31
2022-08-25T03:16:13.771Z,7.45
2022-08-25T03:21:17.777Z,7.45
2022-08-25T03:26:27.405Z,7.29
2022-08-25T03:31:37.539Z,7.29
2022-08-25T03:36:46.909Z,7.59
2022-08-25T03:41:57.314Z,7.59
2022-08-25T03:47:07.092Z,7.38
2022-08-25T03:52:15.558Z,7.38
2022-08-25T03:57:24.039Z,7.5
2022-08-25T04:02:33.654Z,7.5
2022-08-25T04:07:42.981Z,7.6
2022-08-25T04:12:51.391Z,7.6
2022-08-25T04:17:59.872Z,7.42
2022-08-25T04:23:09.625Z,7.42
2022-08-25T04:28:17.469Z,7.51
2022-08-25T04:33:26.600Z,7.51
2022-08-25T04:38:36.346Z,7.52
2022-08-25T04:43:45.469Z,7.52
2022-08-25T04:48:54.611Z,7.73
2022-08-25T04:54:03.110Z,7.73
2022-08-25T04:59:14.146Z,7.57
2022-08-25T05:04:29.550Z,7.57
2022-08-25T05:09:33.264Z,7.44
2022-08-25T05:14:41.035Z,7.44
2022-08-25T05:19:49.311Z,7.52
2022-08-25T05:24:59.514Z,7.52
2022-08-25T05:30:08.832Z,7.66
2022-08-25T05:35:16.672Z,7.66
2022-08-25T05:40:26.757Z,7.6
2022-08-25T05:45:35.904Z,7.6
2022-08-25T05:50:44.654Z,7.62
2022-08-25T05:55:54.423Z,7.62
2022-08-25T06:01:04.029Z,7.71
2022-08-25T06:06:13.326Z,7.71
2022-08-25T06:11:22.435Z,7.48
2022-08-25T06:16:32.629Z,7.48
2022-08-25T06:21:41.315Z,7.56
2022-08-25T06:26:50.431Z,7.56
2022-08-25T06:31:59.564Z,7.66
2022-08-25T06:37:08.678Z,7.51
2022-08-25T06:42:18.445Z,7.51
2022-08-25T06:47:27.595Z,7.53
2022-08-25T06:52:37.963Z,7.53
2022-08-25T06:57:47.153Z,7.3
2022-08-25T07:02:56.185Z,7.3
2022-08-25T07:08:05.708Z,7.35
2022-08-25T07:13:13.792Z,7.35
2022-08-25T07:18:22.286Z,7.46
2022-08-25T07:23:30.749Z,7.46
2022-08-25T07:28:47.699Z,7.46
2022-08-25T07:33:49.236Z,7.46
2022-08-25T07:38:58.137Z,7.26
2022-08-25T07:44:07.240Z,7.26
2022-08-25T07:49:23.823Z,7.42
2022-08-25T07:54:38.576Z,7.42
2022-08-25T07:59:40.690Z,7.49
2022-08-25T08:04:43.666Z,7.49
2022-08-25T08:11:05.691Z,7.42
2022-08-25T08:15:00.664Z,7.42
2022-08-25T08:20:08.525Z,7.47
2022-08-25T08:25:28.053Z,7.47
2022-08-25T08:30:26.785Z,7.37
2022-08-25T08:35:34.600Z,7.37
2022-08-25T08:40:47.429Z,7.2
2022-08-25T08:45:54.031Z,7.2
2022-08-25T08:51:00.727Z,7.34
2022-08-25T08:56:12.618Z,7.34
2022-08-25T09:01:20.515Z,7.28
2022-08-25T09:06:31.251Z,7.28
2022-08-25T09:11:39.733Z,7.35
2022-08-25T09:16:49.282Z,7.35
2022-08-25T09:21:57.986Z,7.35
2022-08-25T09:27:06.783Z,7.35
2022-08-25T09:32:31.872Z,7.18
2022-08-25T09:37:25.332Z,7.18
2022-08-25T09:42:35.076Z,7.31
2022-08-25T09:47:46.690Z,7.31
2022-08-25T09:53:15.319Z,7.39
2022-08-25T09:58:17.535Z,7.39
2022-08-25T10:03:32.495Z,7.45
2022-08-25T10:08:47.906Z,7.56
2022-08-25T10:14:04.081Z,7.56
2022-08-25T10:19:19.571Z,7.33
2022-08-25T10:24:35.308Z,7.33
2022-08-25T10:29:51.295Z,7.5
2022-08-25T10:35:06.135Z,7.5
2022-08-25T10:40:21.090Z,7.46
2022-08-25T10:45:35.894Z,7.46
2022-08-25T10:50:51.463Z,7.4
2022-08-25T10:56:07.248Z,7.4
2022-08-25T10:59:59.575Z,7.57
2022-08-25T11:06:49.276Z,7.57
2022-08-25T11:12:17.174Z,7.55
2022-08-25T11:12:56.775Z,7.55
2022-08-25T11:17:37.596Z,7.55
2022-08-25T11:24:50.338Z,7.41
2022-08-25T11:25:28.074Z,7.41
2022-08-25T11:30:31.165Z,7.36
2022-08-25T11:36:43.340Z,7.36
2022-08-25T11:44:26.339Z,7.38
2022-08-25T11:51:53.315Z,7.47
2022-08-25T11:57:02.060Z,7.47
2022-08-25T12:02:09.475Z,7.43
2022-08-25T12:07:22.215Z,7.43
2022-08-25T12:12:28.385Z,7.54
2022-08-25T12:17:36.838Z,7.54
2022-08-25T12:22:44.678Z,7.41
2022-08-25T12:27:55.006Z,7.41
2022-08-25T12:33:03.563Z,7.54
2022-08-25T12:38:12.665Z,7.54
2022-08-25T12:43:33.270Z,7.43
2022-08-25T12:48:58.517Z,7.43
2022-08-25T12:54:22.771Z,7.42
2022-08-25T12:59:14.758Z,7.38
2022-08-25T13:04:25.157Z,7.38
2022-08-25T13:09:35.639Z,7.45
2022-08-25T13:14:50.258Z,7.45
2022-08-25T13:19:54.432Z,7.32
2022-08-25T13:25:05.943Z,7.32
2022-08-25T13:30:19.000Z,7.34
2022-08-25T13:35:33.337Z,7.34
2022-08-25T13:40:38.891Z,7.31
2022-08-25T13:45:46.134Z,7.31
2022-08-25T13:50:58.319Z,7.47
2022-08-25T13:56:10.143Z,7.47
2022-08-25T14:01:50.818Z,7.53
2022-08-25T14:06:28.660Z,7.53
2022-08-25T14:11:39.385Z,7.37
2022-08-25T14:16:49.770Z,7.37
2022-08-25T14:21:59.217Z,7.38
2022-08-25T14:27:12.127Z,7.38
2022-08-25T14:32:18.534Z,7.53
2022-08-25T14:37:30.771Z,7.53
2022-08-25T14:42:46.294Z,7.5
2022-08-25T14:48:02.438Z,7.5
2022-08-25T14:53:17.368Z,7.56
2022-08-25T14:58:34.152Z,7.56
2022-08-25T15:03:48.399Z,7.47
2022-08-25T15:09:03.255Z,7.47
2022-08-25T15:14:18.774Z,7.56
2022-08-25T15:19:33.831Z,7.56
2022-08-25T15:24:48.640Z,7.54
2022-08-25T15:30:04.700Z,7.54
2022-08-25T15:35:22.135Z,7.5
2022-08-25T15:40:37.746Z,7.5
2022-08-25T15:45:09.032Z,7.51
2022-08-25T15:49:38.127Z,7.51
2022-08-25T15:54:48.398Z,7.45
2022-08-25T15:59:58.269Z,7.45
2022-08-25T16:05:06.157Z,7.55
2022-08-25T16:10:15.237Z,7.55
2022-08-25T16:15:29.194Z,7.66
2022-08-25T16:20:33.039Z,7.48
2022-08-25T16:25:47.011Z,7.48
2022-08-25T16:30:53.479Z,7.48
2022-08-25T16:36:00.831Z,7.48
2022-08-25T16:41:16.290Z,7.58
2022-08-25T16:46:24.577Z,7.58
2022-08-25T16:51:34.229Z,7.55
2022-08-25T16:56:43.011Z,7.55
2022-08-25T17:01:53.766Z,7.6
2022-08-25T17:07:05.205Z,7.6
2022-08-25T17:12:12.988Z,7.58
2022-08-25T17:17:27.259Z,7.58
2022-08-25T17:22:31.790Z,7.53
2022-08-25T17:27:40.350Z,7.53
2022-08-25T17:32:52.636Z,7.72
2022-08-25T17:37:59.229Z,7.72
2022-08-25T17:43:09.953Z,7.62
2022-08-25T17:48:19.288Z,7.62
2022-08-25T17:53:29.969Z,7.67
2022-08-25T17:58:37.636Z,7.67
2022-08-25T18:03:47.412Z,7.56
2022-08-25T18:09:01.399Z,7.56
2022-08-25T18:14:05.639Z,7.72
2022-08-25T18:19:15.386Z,7.72
2022-08-25T18:24:27.711Z,7.62
2022-08-25T18:29:40.593Z,7.62
2022-08-25T18:34:45.972Z,7.72
2022-08-25T18:39:54.681Z,7.72
2022-08-25T18:45:05.492Z,7.8
2022-08-25T18:50:14.744Z,7.8
2022-08-25T18:55:30.801Z,7.84
2022-08-25T19:00:42.783Z,7.84
2022-08-25T19:06:01.781Z,7.84
2022-08-25T19:11:14.486Z,7.84
2022-08-25T19:16:28.772Z,8.07
2022-08-25T19:21:44.890Z,8.07
2022-08-25T19:27:03.023Z,7.81
2022-08-25T19:32:20.738Z,7.81
2022-08-25T19:37:33.974Z,8.08
2022-08-25T19:42:50.137Z,8
2022-08-25T19:48:05.922Z,8
2022-08-25T19:53:21.362Z,7.94
2022-08-25T19:58:40.610Z,7.94
2022-08-25T20:02:23.170Z,8.01
2022-08-25T20:07:31.413Z,8.01
2022-08-25T20:12:40.691Z,7.84
2022-08-25T20:17:49.629Z,7.84
2022-08-25T20:22:59.403Z,7.88
2022-08-25T20:28:19.388Z,7.88
2022-08-25T20:33:23.699Z,7.98
2022-08-25T20:38:26.753Z,7.98
2022-08-25T20:43:36.534Z,7.87
2022-08-25T20:48:44.364Z,7.87
2022-08-25T20:53:54.118Z,7.83
2022-08-25T20:59:03.972Z,7.83
2022-08-25T21:04:14.759Z,7.93
2022-08-25T21:09:22.117Z,7.93
2022-08-25T21:14:31.986Z,8.11
2022-08-25T21:19:42.455Z,8.11
2022-08-25T21:24:49.488Z,7.86
2022-08-25T21:29:59.570Z,7.86
2022-08-25T21:35:08.358Z,7.95
2022-08-25T21:40:17.193Z,7.95
2022-08-25T21:45:36.353Z,7.79
2022-08-25T21:50:37.320Z,7.79
2022-08-25T21:55:46.756Z,7.91
2022-08-25T22:00:56.227Z,7.91
2022-08-25T22:06:05.671Z,7.89
2022-08-25T22:11:15.104Z,7.89
2022-08-25T22:16:24.525Z,7.86
2022-08-25T22:21:31.885Z,7.86
2022-08-25T22:26:40.199Z,7.8
2022-08-25T22:31:53.250Z,7.8
2022-08-25T22:37:01.970Z,7.7
2022-08-25T22:42:16.882Z,7.7
2022-08-25T22:47:31.826Z,7.67
2022-08-25T22:52:47.883Z,7.67
2022-08-25T22:58:03.449Z,7.75
2022-08-25T23:03:19.612Z,7.94
2022-08-25T23:08:41.127Z,7.94
2022-08-25T23:13:49.342Z,7.73
2022-08-25T23:19:05.486Z,7.73
2022-08-25T23:24:27.146Z,7.83
2022-08-25T23:29:37.251Z,7.83
2022-08-25T23:34:53.335Z,7.94
2022-08-25T23:40:08.896Z,7.94
2022-08-25T23:44:33.749Z,7.92
2022-08-25T23:49:09.507Z,7.92
2022-08-25T23:54:16.566Z,8.15
2022-08-25T23:59:25.876Z,8.15
